createdAt,value
2023-04-19T00:00:50.778Z,69.66
2023-04-19T00:03:18.096Z,69.72
2023-04-19T00:05:45.098Z,69.75
2023-04-19T00:08:11.910Z,69.79
2023-04-19T00:10:40.001Z,69.46
2023-04-19T00:13:06.967Z,69.61
2023-04-19T00:15:35.030Z,69.58
2023-04-19T00:18:02.000Z,69.53
2023-04-19T00:20:28.910Z,69.68
2023-04-19T00:22:56.878Z,70.13
2023-04-19T00:25:23.772Z,69.93
2023-04-19T00:27:50.606Z,70.51
2023-04-19T00:30:17.390Z,71.05
2023-04-19T00:32:44.272Z,71.24
2023-04-19T00:35:11.130Z,71.44
2023-04-19T00:37:37.960Z,71.65
2023-04-19T00:40:05.954Z,72.19
2023-04-19T00:42:32.880Z,72.26
2023-04-19T00:44:59.716Z,72.43
2023-04-19T00:47:26.581Z,71.81
2023-04-19T00:49:53.428Z,71.74
2023-04-19T00:52:21.572Z,72.02
2023-04-19T00:54:49.429Z,71.80
2023-04-19T00:57:17.750Z,71.96
2023-04-19T00:59:44.845Z,71.96
2023-04-19T01:02:11.817Z,72.38
2023-04-19T01:04:38.835Z,72.14
2023-04-19T01:07:06.976Z,72.41
2023-04-19T01:09:34.846Z,72.59
2023-04-19T01:12:03.450Z,72.77
2023-04-19T01:14:30.350Z,72.44
2023-04-19T01:16:58.069Z,72.42
2023-04-19T01:19:24.910Z,72.64
2023-04-19T01:21:52.763Z,72.71
2023-04-19T01:24:19.703Z,72.43
2023-04-19T01:26:46.642Z,72.38
2023-04-19T01:29:13.501Z,71.90
2023-04-19T01:31:40.454Z,71.68
2023-04-19T01:34:07.352Z,71.95
2023-04-19T01:36:34.130Z,71.47
2023-04-19T01:39:01.576Z,71.53
2023-04-19T01:41:29.649Z,71.77
2023-04-19T01:43:56.506Z,71.70
2023-04-19T01:46:23.381Z,71.95
2023-04-19T01:48:50.254Z,71.59
2023-04-19T01:51:17.415Z,71.60
2023-04-19T01:53:44.228Z,71.86
2023-04-19T01:56:11.089Z,71.89
2023-04-19T01:58:37.903Z,72.35
2023-04-19T02:01:04.807Z,72.35
2023-04-19T02:03:31.835Z,71.90
2023-04-19T02:05:58.710Z,71.56
2023-04-19T02:08:25.630Z,71.61
2023-04-19T02:10:52.508Z,71.80
2023-04-19T02:13:19.372Z,71.96
2023-04-19T02:15:46.192Z,71.88
2023-04-19T02:18:13.530Z,71.40
2023-04-19T02:20:40.444Z,71.25
2023-04-19T02:23:07.388Z,71.65
2023-04-19T02:25:34.260Z,71.60
2023-04-19T02:28:01.185Z,71.52
2023-04-19T02:30:28.012Z,71.57
2023-04-19T02:32:55.156Z,71.35
2023-04-19T02:35:22.217Z,71.88
2023-04-19T02:37:49.058Z,71.82
2023-04-19T02:40:16.042Z,71.52
2023-04-19T02:42:42.864Z,71.38
2023-04-19T02:45:10.028Z,71.14
2023-04-19T02:47:37.108Z,71.10
2023-04-19T02:50:04.362Z,71.52
2023-04-19T02:52:31.155Z,71.49
2023-04-19T02:54:57.979Z,71.52
2023-04-19T02:57:24.899Z,71.40
2023-04-19T02:59:51.727Z,71.32
2023-04-19T03:02:18.697Z,71.07
2023-04-19T03:04:47.225Z,71.18
2023-04-19T03:07:14.513Z,70.99
2023-04-19T03:09:41.522Z,70.73
2023-04-19T03:12:08.625Z,70.68
2023-04-19T03:14:35.798Z,70.82
2023-04-19T03:17:03.175Z,70.86
2023-04-19T03:19:30.220Z,70.70
2023-04-19T03:21:57.058Z,70.74
2023-04-19T03:24:30.754Z,71.09
2023-04-19T03:26:58.169Z,70.61
2023-04-19T03:29:25.245Z,70.92
2023-04-19T03:31:52.111Z,71.29
2023-04-19T03:34:18.925Z,70.76
2023-04-19T03:36:45.852Z,71.23
2023-04-19T03:39:12.640Z,70.88
2023-04-19T03:41:40.747Z,71.06
2023-04-19T03:44:07.568Z,70.65
2023-04-19T03:46:34.438Z,70.70
2023-04-19T03:49:01.323Z,70.61
2023-04-19T03:51:28.126Z,70.53
2023-04-19T03:53:54.996Z,70.41
2023-04-19T03:56:21.823Z,70.40
2023-04-19T03:58:51.619Z,70.36
2023-04-19T04:01:20.328Z,70.74
2023-04-19T04:03:47.669Z,70.73
2023-04-19T04:06:14.866Z,71.00
2023-04-19T04:08:41.658Z,71.21
2023-04-19T04:11:08.554Z,71.53
2023-04-19T04:13:35.459Z,71.47
2023-04-19T04:16:02.559Z,71.62
2023-04-19T04:18:29.458Z,71.13
2023-04-19T04:20:56.431Z,70.88
2023-04-19T04:23:23.522Z,70.61
2023-04-19T04:26:00.975Z,70.58
2023-04-19T04:28:28.589Z,71.03
2023-04-19T04:31:00.322Z,70.88
2023-04-19T04:33:28.520Z,70.92
2023-04-19T04:35:56.388Z,70.88
2023-04-19T04:38:24.957Z,71.11
2023-04-19T04:40:53.786Z,70.43
2023-04-19T04:43:25.949Z,70.30
2023-04-19T04:45:55.579Z,70.38
2023-04-19T04:48:22.983Z,69.94
2023-04-19T04:50:49.995Z,70.25
2023-04-19T04:53:16.807Z,69.82
2023-04-19T04:55:43.647Z,70.04
2023-04-19T04:58:10.629Z,70.21
2023-04-19T05:00:37.485Z,70.18
2023-04-19T05:03:04.581Z,69.93
2023-04-19T05:05:31.675Z,70.13
2023-04-19T05:07:59.080Z,69.85
2023-04-19T05:10:26.095Z,69.33
2023-04-19T05:12:52.904Z,69.90
2023-04-19T05:15:19.896Z,69.30
2023-04-19T05:17:46.911Z,68.98
2023-04-19T05:20:13.996Z,69.20
2023-04-19T05:22:41.112Z,69.69
2023-04-19T05:25:10.296Z,69.21
2023-04-19T05:27:37.141Z,69.36
2023-04-19T05:30:06.916Z,69.58
2023-04-19T05:32:33.949Z,69.93
2023-04-19T05:35:00.896Z,69.17
2023-04-19T05:37:27.754Z,69.25
2023-04-19T05:39:54.599Z,69.09
2023-04-19T05:42:21.391Z,69.37
2023-04-19T05:44:48.301Z,69.28
2023-04-19T05:47:15.526Z,69.11
2023-04-19T05:49:43.324Z,69.11
2023-04-19T05:52:10.555Z,69.03
2023-04-19T05:54:37.414Z,69.03
2023-04-19T05:57:04.422Z,69.05
2023-04-19T05:59:31.360Z,69.18
2023-04-19T06:01:58.353Z,68.87
2023-04-19T06:04:25.731Z,68.28
2023-04-19T06:06:52.770Z,68.98
2023-04-19T06:09:19.705Z,68.52
2023-04-19T06:11:50.739Z,68.05
2023-04-19T06:14:18.996Z,68.21
2023-04-19T06:16:46.392Z,68.64
2023-04-19T06:19:13.615Z,67.79
2023-04-19T06:21:40.555Z,67.28
2023-04-19T06:24:07.843Z,66.51
2023-04-19T06:26:34.779Z,66.48
2023-04-19T06:29:01.708Z,66.13
2023-04-19T06:31:28.869Z,65.41
2023-04-19T06:33:55.752Z,64.93
2023-04-19T06:36:22.589Z,64.82
2023-04-19T06:38:50.199Z,64.60
2023-04-19T06:41:17.724Z,63.66
2023-04-19T06:43:44.975Z,63.45
2023-04-19T06:46:13.870Z,62.53
2023-04-19T06:48:41.100Z,62.59
2023-04-19T06:51:08.036Z,61.92
2023-04-19T06:53:35.717Z,61.04
2023-04-19T06:56:04.688Z,61.25
2023-04-19T06:58:34.535Z,62.43
2023-04-19T07:01:04.374Z,61.26
2023-04-19T07:03:31.901Z,61.25
2023-04-19T07:05:59.096Z,61.50
2023-04-19T07:08:42.420Z,60.32
2023-04-19T07:11:15.347Z,59.88
2023-04-19T07:13:42.189Z,59.89
2023-04-19T07:16:09.118Z,60.38
2023-04-19T07:18:35.997Z,59.76
2023-04-19T07:21:02.858Z,59.35
2023-04-19T07:23:30.836Z,59.01
2023-04-19T07:25:57.918Z,59.43
2023-04-19T07:28:24.759Z,57.42
2023-04-19T07:30:51.663Z,57.24
2023-04-19T07:33:18.486Z,56.95
2023-04-19T07:35:45.431Z,58.75
2023-04-19T07:38:12.525Z,57.86
2023-04-19T07:40:39.469Z,56.93
2023-04-19T07:43:06.825Z,57.80
2023-04-19T07:45:33.695Z,57.35
2023-04-19T07:48:00.544Z,58.18
2023-04-19T07:50:27.756Z,58.07
2023-04-19T07:52:54.786Z,56.94
2023-04-19T07:55:21.658Z,56.81
2023-04-19T07:57:49.584Z,57.17
2023-04-19T08:00:18.185Z,57.95
2023-04-19T08:02:46.642Z,58.97
2023-04-19T08:05:18.742Z,59.22
2023-04-19T08:07:46.159Z,60.13
2023-04-19T08:10:13.413Z,59.42
2023-04-19T08:12:50.333Z,57.94
2023-04-19T08:17:57.829Z,58.27
2023-04-19T08:20:24.887Z,58.15
2023-04-19T08:22:51.779Z,58.57
2023-04-19T08:25:18.705Z,58.72
2023-04-19T08:27:45.549Z,57.88
2023-04-19T08:30:12.946Z,57.29
2023-04-19T08:32:39.859Z,56.46
2023-04-19T08:35:08.386Z,57.64
2023-04-19T08:37:35.400Z,58.05
2023-04-19T08:40:02.395Z,57.20
2023-04-19T08:42:36.304Z,57.63
2023-04-19T08:47:52.056Z,58.30
2023-04-19T08:50:33.208Z,59.84
2023-04-19T08:53:20.915Z,59.65
2023-04-19T08:58:33.254Z,58.70
2023-04-19T09:01:12.807Z,57.53
2023-04-19T09:03:59.540Z,56.50
2023-04-19T09:06:27.976Z,57.32
2023-04-19T09:09:33.278Z,57.22
2023-04-19T09:12:02.557Z,57.35
2023-04-19T09:14:29.934Z,57.42
2023-04-19T09:17:15.788Z,57.39
2023-04-19T09:19:48.262Z,57.66
2023-04-19T09:22:15.659Z,57.85
2023-04-19T09:27:12.470Z,56.48
2023-04-19T09:29:39.617Z,55.54
2023-04-19T09:32:06.559Z,54.85
2023-04-19T09:34:33.415Z,55.42
2023-04-19T09:37:24.953Z,54.94
2023-04-19T09:39:54.903Z,54.20
2023-04-19T09:42:42.341Z,54.15
2023-04-19T09:47:39.177Z,55.72
2023-04-19T09:50:22.016Z,54.61
2023-04-19T09:52:52.859Z,54.26
2023-04-19T09:57:50.180Z,53.06
2023-04-19T10:00:17.290Z,52.78
2023-04-19T10:02:48.213Z,53.95
2023-04-19T10:05:21.306Z,54.41
2023-04-19T10:07:50.350Z,54.40
2023-04-19T10:10:20.838Z,55.94
2023-04-19T10:15:26.841Z,57.26
2023-04-19T10:17:56.681Z,57.60
2023-04-19T10:20:32.600Z,58.37
2023-04-19T10:23:00.193Z,58.77
2023-04-19T10:25:30.967Z,58.08
2023-04-19T10:27:58.025Z,57.93
2023-04-19T10:30:28.732Z,56.72
2023-04-19T10:33:02.936Z,56.67
2023-04-19T10:35:38.325Z,57.04
2023-04-19T10:38:16.328Z,57.51
2023-04-19T10:40:52.815Z,56.89
2023-04-19T10:43:20.409Z,57.03
2023-04-19T10:45:47.891Z,57.16
2023-04-19T10:48:30.685Z,57.48
2023-04-19T10:51:19.171Z,57.00
2023-04-19T10:53:54.653Z,55.81
2023-04-19T10:57:02.426Z,57.28
2023-04-19T10:59:37.502Z,58.50
2023-04-19T11:02:24.801Z,58.35
2023-04-19T11:04:51.856Z,58.94
2023-04-19T11:07:20.193Z,60.31
2023-04-19T11:09:48.786Z,61.87
2023-04-19T11:12:18.071Z,63.21
2023-04-19T11:14:59.797Z,65.00
2023-04-19T11:17:31.840Z,66.16
2023-04-19T11:20:07.388Z,66.16
2023-04-19T11:22:43.148Z,65.70
2023-04-19T11:25:12.978Z,65.95
2023-04-19T11:27:42.681Z,66.40
2023-04-19T11:30:13.182Z,66.86
2023-04-19T11:32:54.249Z,65.66
2023-04-19T11:35:24.613Z,65.59
2023-04-19T11:37:52.439Z,66.61
2023-04-19T11:40:21.464Z,67.65
2023-04-19T11:43:04.873Z,66.34
2023-04-19T11:45:39.245Z,66.29
2023-04-19T11:48:15.396Z,65.50
2023-04-19T11:50:45.154Z,65.52
2023-04-19T11:53:21.722Z,66.30
2023-04-19T11:55:51.968Z,65.99
2023-04-19T11:58:26.430Z,67.54
2023-04-19T12:00:53.363Z,67.78
2023-04-19T12:03:25.954Z,67.01
2023-04-19T12:05:58.835Z,66.30
2023-04-19T12:08:43.611Z,65.93
2023-04-19T12:11:10.517Z,65.51
2023-04-19T12:13:37.799Z,65.91
2023-04-19T12:16:04.969Z,64.96
2023-04-19T12:18:51.600Z,64.97
2023-04-19T12:21:32.061Z,65.70
2023-04-19T12:24:01.214Z,65.48
2023-04-19T12:26:29.444Z,64.51
2023-04-19T12:28:58.289Z,64.43
2023-04-19T12:31:26.084Z,64.68
2023-04-19T12:33:53.682Z,64.21
2023-04-19T12:36:21.237Z,65.24
2023-04-19T12:38:48.047Z,66.15
2023-04-19T12:41:14.978Z,65.86
2023-04-19T12:43:41.779Z,65.71
2023-04-19T12:46:08.658Z,66.04
2023-04-19T12:48:35.468Z,66.27
2023-04-19T12:51:02.299Z,65.94
2023-04-19T12:53:29.328Z,66.12
2023-04-19T12:55:56.135Z,66.30
2023-04-19T12:58:23.130Z,67.45
2023-04-19T13:00:49.947Z,66.26
2023-04-19T13:03:17.013Z,66.46
2023-04-19T13:05:43.922Z,67.28
2023-04-19T13:08:10.733Z,68.00
2023-04-19T13:10:37.552Z,68.01
2023-04-19T13:13:04.387Z,69.09
2023-04-19T13:15:31.306Z,69.09
2023-04-19T13:17:58.259Z,69.70
2023-04-19T13:20:25.244Z,69.74
2023-04-19T13:22:52.108Z,70.53
2023-04-19T13:25:18.958Z,70.01
2023-04-19T13:27:46.992Z,70.54
2023-04-19T13:30:14.404Z,70.89
2023-04-19T13:32:41.233Z,70.22
2023-04-19T13:35:08.976Z,70.58
2023-04-19T13:37:35.820Z,70.73
2023-04-19T13:40:17.234Z,70.15
2023-04-19T13:42:45.489Z,68.90
2023-04-19T13:45:12.620Z,69.45
2023-04-19T13:47:39.533Z,69.33
2023-04-19T13:50:07.441Z,70.06
2023-04-19T13:52:34.310Z,69.27
2023-04-19T13:55:01.158Z,68.44
2023-04-19T13:57:28.002Z,68.27
2023-04-19T13:59:54.815Z,67.50
2023-04-19T14:02:21.834Z,68.27
2023-04-19T14:04:48.755Z,68.00
2023-04-19T14:07:15.566Z,68.94
2023-04-19T14:09:42.419Z,68.64
2023-04-19T14:12:09.591Z,68.69
2023-04-19T14:14:36.414Z,69.24
2023-04-19T14:17:03.276Z,69.04
2023-04-19T14:19:30.179Z,68.52
2023-04-19T14:21:56.972Z,68.63
2023-04-19T14:24:23.797Z,68.53
2023-04-19T14:27:03.506Z,67.66
2023-04-19T14:29:36.883Z,67.08
2023-04-19T14:32:17.163Z,67.10
2023-04-19T14:34:51.547Z,66.45
2023-04-19T14:37:21.092Z,66.76
2023-04-19T14:39:47.976Z,66.31
2023-04-19T14:42:14.829Z,65.53
2023-04-19T14:44:41.867Z,65.86
2023-04-19T14:47:08.726Z,66.59
2023-04-19T14:49:35.606Z,66.03
2023-04-19T14:52:03.928Z,65.75
2023-04-19T14:54:30.983Z,65.04
2023-04-19T14:56:57.837Z,65.43
2023-04-19T14:59:24.751Z,65.47
2023-04-19T15:01:51.705Z,64.27
2023-04-19T15:04:18.707Z,65.11
2023-04-19T15:06:46.098Z,65.09
2023-04-19T15:09:13.060Z,64.98
2023-04-19T15:11:39.911Z,64.30
2023-04-19T15:14:06.692Z,64.07
2023-04-19T15:16:33.663Z,64.10
2023-04-19T15:19:02.022Z,63.56
2023-04-19T15:21:29.390Z,64.45
2023-04-19T15:23:56.323Z,64.57
2023-04-19T15:26:24.296Z,63.94
2023-04-19T15:28:51.524Z,64.87
2023-04-19T15:31:18.414Z,64.71
2023-04-19T15:33:45.285Z,64.19
2023-04-19T15:36:12.298Z,64.48
2023-04-19T15:38:39.190Z,64.99
2023-04-19T15:41:05.987Z,64.11
2023-04-19T15:43:33.022Z,64.75
2023-04-19T15:46:00.349Z,64.58
2023-04-19T15:48:28.134Z,64.47
2023-04-19T15:50:54.942Z,65.21
2023-04-19T15:53:21.766Z,63.76
2023-04-19T15:55:48.637Z,63.75
2023-04-19T15:58:15.490Z,63.95
2023-04-19T16:00:42.284Z,64.19
2023-04-19T16:03:12.300Z,64.76
2023-04-19T16:05:39.978Z,64.44
2023-04-19T16:08:09.468Z,65.10
2023-04-19T16:10:36.816Z,64.95
2023-04-19T16:13:07.161Z,64.76
2023-04-19T16:15:33.963Z,65.51
2023-04-19T16:18:01.160Z,66.01
2023-04-19T16:20:28.052Z,66.05
2023-04-19T16:22:54.932Z,65.03
2023-04-19T16:25:21.774Z,65.75
2023-04-19T16:27:48.714Z,64.06
2023-04-19T16:30:16.404Z,64.58
2023-04-19T16:32:43.709Z,64.26
2023-04-19T16:35:11.132Z,64.49
2023-04-19T16:37:37.964Z,64.28
2023-04-19T16:40:10.724Z,63.71
2023-04-19T16:42:38.973Z,63.76
2023-04-19T16:45:07.495Z,64.63
2023-04-19T16:47:35.938Z,63.65
2023-04-19T16:50:04.719Z,61.65
2023-04-19T16:52:34.362Z,62.03
2023-04-19T16:55:03.637Z,61.92
2023-04-19T16:57:31.452Z,62.64
2023-04-19T16:59:58.705Z,61.99
2023-04-19T17:02:25.901Z,61.70
2023-04-19T17:04:53.155Z,61.68
2023-04-19T17:07:20.072Z,61.06
2023-04-19T17:09:47.211Z,62.36
2023-04-19T17:12:14.276Z,62.70
2023-04-19T17:14:41.089Z,62.93
2023-04-19T17:17:07.952Z,63.62
2023-04-19T17:19:34.974Z,64.20
2023-04-19T17:22:05.451Z,64.33
2023-04-19T17:24:33.554Z,65.05
2023-04-19T17:27:00.892Z,65.34
2023-04-19T17:29:27.819Z,66.03
2023-04-19T17:31:56.187Z,66.11
2023-04-19T17:34:23.347Z,65.06
2023-04-19T17:36:50.180Z,64.89
2023-04-19T17:39:17.220Z,62.76
2023-04-19T17:41:44.791Z,62.62
2023-04-19T17:44:12.617Z,62.64
2023-04-19T17:46:40.472Z,62.46
2023-04-19T17:49:09.037Z,62.37
2023-04-19T17:51:35.881Z,62.87
2023-04-19T17:54:03.049Z,63.76
2023-04-19T17:56:31.186Z,64.12
2023-04-19T17:59:00.571Z,64.45
2023-04-19T18:01:27.557Z,64.91
2023-04-19T18:03:54.510Z,65.41
2023-04-19T18:06:21.914Z,66.27
2023-04-19T18:08:50.633Z,66.90
2023-04-19T18:11:18.254Z,67.11
2023-04-19T18:13:45.497Z,67.14
2023-04-19T18:16:13.441Z,66.76
2023-04-19T18:18:40.290Z,67.00
2023-04-19T18:21:08.271Z,66.42
2023-04-19T18:23:35.184Z,66.76
2023-04-19T18:26:04.580Z,67.82
2023-04-19T18:28:31.513Z,68.62
2023-04-19T18:30:58.407Z,68.58
2023-04-19T18:33:25.273Z,68.57
2023-04-19T18:35:53.954Z,68.70
2023-04-19T18:38:21.019Z,67.92
2023-04-19T18:40:48.229Z,67.69
2023-04-19T18:43:16.134Z,67.66
2023-04-19T18:45:53.048Z,67.59
2023-04-19T18:48:19.960Z,67.43
2023-04-19T18:50:46.844Z,66.95
2023-04-19T18:53:13.775Z,66.99
2023-04-19T18:55:40.879Z,68.11
2023-04-19T18:58:08.822Z,68.24
2023-04-19T19:00:35.745Z,68.73
2023-04-19T19:03:03.909Z,68.83
2023-04-19T19:05:31.275Z,68.86
2023-04-19T19:07:58.376Z,68.63
2023-04-19T19:10:49.796Z,68.40
2023-04-19T19:13:13.429Z,68.49
2023-04-19T19:15:41.445Z,67.92
2023-04-19T19:18:11.658Z,68.62
2023-04-19T19:20:38.575Z,68.68
2023-04-19T19:23:05.972Z,68.51
2023-04-19T19:25:33.125Z,68.22
2023-04-19T19:28:06.495Z,68.90
2023-04-19T19:30:39.458Z,69.12
2023-04-19T19:33:06.443Z,69.19
2023-04-19T19:35:33.576Z,69.16
2023-04-19T19:38:00.798Z,68.90
2023-04-19T19:40:31.119Z,69.15
2023-04-19T19:43:00.087Z,69.22
2023-04-19T19:45:28.975Z,69.05
2023-04-19T19:47:59.057Z,69.14
2023-04-19T19:52:58.384Z,69.51
2023-04-19T19:55:25.491Z,69.51
2023-04-19T20:00:42.813Z,69.53
2023-04-19T20:03:09.148Z,69.70
2023-04-19T20:05:36.436Z,69.39
2023-04-19T20:08:11.942Z,69.26
2023-04-19T20:10:41.325Z,69.49
2023-04-19T20:13:08.516Z,69.36
2023-04-19T20:15:37.714Z,69.53
2023-04-19T20:18:05.237Z,69.84
2023-04-19T20:20:32.263Z,70.01
2023-04-19T20:22:59.138Z,69.77
2023-04-19T20:25:26.226Z,70.00
2023-04-19T20:27:54.115Z,70.43
2023-04-19T20:30:21.160Z,70.33
2023-04-19T20:32:50.011Z,70.11
2023-04-19T20:35:17.017Z,70.30
2023-04-19T20:37:44.452Z,70.47
2023-04-19T20:40:14.977Z,70.36
2023-04-19T20:42:42.614Z,70.36
2023-04-19T20:45:10.518Z,70.39
2023-04-19T20:47:40.434Z,70.96
2023-04-19T20:50:08.759Z,70.76
2023-04-19T20:52:35.879Z,70.35
2023-04-19T20:55:02.771Z,70.79
2023-04-19T20:57:29.597Z,70.49
2023-04-19T20:59:58.216Z,70.52
2023-04-19T21:02:25.185Z,70.62
2023-04-19T21:04:52.185Z,70.92
2023-04-19T21:07:19.875Z,70.76
2023-04-19T21:09:46.657Z,70.66
2023-04-19T21:12:13.539Z,70.43
2023-04-19T21:14:40.506Z,70.81
2023-04-19T21:17:07.321Z,71.09
2023-04-19T21:19:34.695Z,71.39
2023-04-19T21:22:01.516Z,71.00
2023-04-19T21:24:28.327Z,70.59
2023-04-19T21:26:55.168Z,70.78
2023-04-19T21:29:22.110Z,71.03
2023-04-19T21:31:48.998Z,71.11
2023-04-19T21:34:15.915Z,71.21
2023-04-19T21:36:42.805Z,71.13
2023-04-19T21:39:10.188Z,70.99
2023-04-19T21:41:37.826Z,71.03
2023-04-19T21:44:04.779Z,71.10
2023-04-19T21:46:32.038Z,70.88
2023-04-19T21:48:58.862Z,71.08
2023-04-19T21:51:25.688Z,70.89
2023-04-19T21:53:52.517Z,71.11
2023-04-19T21:56:19.376Z,71.42
2023-04-19T21:58:46.205Z,71.56
2023-04-19T22:01:13.132Z,71.24
2023-04-19T22:03:40.519Z,72.12
2023-04-19T22:06:08.449Z,72.12
2023-04-19T22:08:35.388Z,72.26
2023-04-19T22:11:02.761Z,72.40
2023-04-19T22:13:30.566Z,72.23
2023-04-19T22:15:57.427Z,72.17
2023-04-19T22:18:24.406Z,71.72
2023-04-19T22:20:53.157Z,71.79
2023-04-19T22:23:20.128Z,72.05
2023-04-19T22:25:46.944Z,71.85
2023-04-19T22:28:13.799Z,71.64
2023-04-19T22:30:40.808Z,71.63
2023-04-19T22:33:07.810Z,71.57
2023-04-19T22:35:34.609Z,71.85
2023-04-19T22:38:01.466Z,71.56
2023-04-19T22:40:28.445Z,71.75
2023-04-19T22:42:55.617Z,71.77
2023-04-19T22:45:22.474Z,71.68
2023-04-19T22:47:49.317Z,72.06
2023-04-19T22:50:16.249Z,72.21
2023-04-19T22:52:44.587Z,72.27
2023-04-19T22:55:11.681Z,72.01
2023-04-19T22:57:38.554Z,71.96
2023-04-19T23:00:06.968Z,72.08
2023-04-19T23:02:33.942Z,72.06
2023-04-19T23:05:00.911Z,72.18
2023-04-19T23:07:28.812Z,72.05
2023-04-19T23:09:56.127Z,72.42
2023-04-19T23:12:24.117Z,72.36
2023-04-19T23:14:51.116Z,72.02
2023-04-19T23:17:18.260Z,72.01
2023-04-19T23:19:45.146Z,71.84
2023-04-19T23:22:11.996Z,71.85
2023-04-19T23:24:38.776Z,71.78
2023-04-19T23:27:05.704Z,71.63
2023-04-19T23:29:32.575Z,71.68
2023-04-19T23:32:00.890Z,71.56
2023-04-19T23:34:27.782Z,71.71
2023-04-19T23:36:54.575Z,71.61
2023-04-19T23:39:21.528Z,71.43
2023-04-19T23:41:48.395Z,71.40
2023-04-19T23:44:15.318Z,71.13
2023-04-19T23:46:42.135Z,70.94
2023-04-19T23:49:09.041Z,70.85
2023-04-19T23:51:36.356Z,71.10
2023-04-19T23:54:03.401Z,71.51
2023-04-19T23:56:30.429Z,71.23
2023-04-19T23:58:57.513Z,71.12
